Time;durP1;ratioP1;P1;durP2;ratioP2;P2;SDS_P1;SDS_P2;PMS_P1;PMS_P2;Temp;Humidity;BMP_temperature;BMP_pressure;BME280_temperature;BME280_humidity;BME280_pressure;Samples;Min_cycle;Max_cycle;Signal;HPM_P1;HPM_P2
2022/02/16 00:00:36;;;;;;;1999.90;999.90;;;;;;;1.54;50.77;100190.75;5040126;27;97344;-69
2022/02/16 00:03:04;;;;;;;1999.90;999.90;;;;;;;1.55;50.60;100182.03;5020729;27;97697;-67
2022/02/16 00:05:35;;;;;;;1999.90;999.90;;;;;;;1.54;50.39;100173.31;5005908;27;98443;-67
2022/02/16 00:08:04;;;;;;;1999.90;999.90;;;;;;;1.54;50.20;100181.16;5043208;27;98853;-67
2022/02/16 00:10:31;;;;;;;1999.90;999.90;;;;;;;1.56;50.07;100179.47;5008811;27;97244;-67
2022/02/16 00:12:59;;;;;;;1999.90;999.90;;;;;;;1.51;50.82;100173.13;5024325;27;98684;-67
2022/02/16 00:15:29;;;;;;;1999.90;999.90;;;;;;;1.56;50.25;100179.47;5039511;27;97799;-66
2022/02/16 00:17:56;;;;;;;1999.90;999.90;;;;;;;1.55;51.34;100185.56;5022495;27;98407;-67
2022/02/16 00:20:25;;;;;;;1999.90;999.90;;;;;;;1.49;50.71;100166.91;5041288;27;98970;-67
2022/02/16 00:22:54;;;;;;;1999.90;999.90;;;;;;;1.49;51.16;100169.53;5024865;27;98550;-66
2022/02/16 00:25:22;;;;;;;1999.90;999.90;;;;;;;1.48;51.59;100174.72;5022212;27;99345;-66
2022/02/16 00:27:50;;;;;;;1999.90;999.90;;;;;;;1.44;51.00;100159.66;5025753;27;99255;-67
2022/02/16 00:30:18;;;;;;;1999.90;999.90;;;;;;;1.46;51.40;100160.63;5022019;27;97657;-67
2022/02/16 00:32:47;;;;;;;1999.90;999.90;;;;;;;1.46;51.19;100160.63;5005623;27;98045;-66
2022/02/16 00:35:15;;;;;;;1999.90;999.90;;;;;;;1.45;52.09;100164.97;5038618;27;98276;-66
2022/02/16 00:37:43;;;;;;;1999.90;999.90;;;;;;;1.44;51.61;100152.69;5022763;27;98125;-67
2022/02/16 00:40:12;;;;;;;1999.90;999.90;;;;;;;1.43;52.14;100156.16;5041444;27;96910;-67
2022/02/16 00:42:40;;;;;;;1999.90;999.90;;;;;;;1.42;52.02;100150.81;5041665;27;98089;-67
2022/02/16 00:45:08;;;;;;;1999.90;999.90;;;;;;;1.39;52.03;100143.72;5021193;27;99638;-67
2022/02/16 00:47:36;;;;;;;1999.90;999.90;;;;;;;1.39;51.94;100148.97;5037870;27;99390;-66
2022/02/16 00:50:06;;;;;;;1999.90;999.90;;;;;;;1.37;52.35;100139.22;5041900;27;97810;-66
2022/02/16 00:52:38;;;;;;;1999.90;999.90;;;;;;;1.38;52.09;100139.28;5004915;27;99362;-67
2022/02/16 00:55:07;;;;;;;1999.90;999.90;;;;;;;1.35;52.37;100131.31;5003331;27;99892;-66
2022/02/16 00:57:35;;;;;;;1999.90;999.90;;;;;;;1.39;51.66;100128.00;5005493;27;99192;-67
2022/02/16 01:00:04;;;;;;;1999.90;999.90;;;;;;;1.39;52.32;100133.25;5022235;27;97162;-67
2022/02/16 01:02:40;;;;;;;1999.90;999.90;;;;;;;1.36;52.66;100138.31;5003974;27;98517;-66
2022/02/16 01:05:10;;;;;;;1999.90;999.90;;;;;;;1.40;52.29;100134.16;5005286;27;99225;-67
2022/02/16 01:07:40;;;;;;;1999.90;999.90;;;;;;;1.36;52.57;100133.06;5021511;27;98693;-66
2022/02/16 01:10:10;;;;;;;1999.90;999.90;;;;;;;1.37;52.89;100129.66;4997684;27;97374;-67
2022/02/16 01:12:43;;;;;;;1999.90;999.90;;;;;;;1.34;52.81;100124.28;5018241;27;97643;-67
2022/02/16 01:15:12;;;;;;;1999.90;999.90;;;;;;;1.37;52.69;100134.00;5017396;27;100404;-67
2022/02/16 01:17:42;;;;;;;1999.90;999.90;;;;;;;1.38;52.57;100114.84;5018279;27;98399;-67
2022/02/16 01:20:25;;;;;;;1999.90;999.90;;;;;;;1.36;53.24;100116.47;5021674;27;98069;-67
2022/02/16 01:23:04;;;;;;;1999.90;999.90;;;;;;;1.29;53.48;100110.03;5005665;27;99349;-67
2022/02/16 01:25:33;;;;;;;1999.90;999.90;;;;;;;1.24;53.56;100114.16;5004264;27;99553;-66
2022/02/16 01:28:07;;;;;;;1999.90;999.90;;;;;;;1.27;52.98;100106.44;5003798;27;100016;-66
2022/02/16 01:30:39;;;;;;;1999.90;999.90;;;;;;;1.25;53.74;100112.47;5003786;27;96833;-67
2022/02/16 01:33:13;;;;;;;1999.90;999.90;;;;;;;1.25;53.36;100100.25;5003678;27;96804;-67
2022/02/16 01:35:51;;;;;;;1999.90;999.90;;;;;;;1.25;53.54;100100.25;5017202;27;98050;-67
2022/02/16 01:38:19;;;;;;;1999.90;999.90;;;;;;;1.25;53.22;100094.13;5021282;27;98866;-67
2022/02/16 01:41:01;;;;;;;1999.90;999.90;;;;;;;1.27;53.50;100095.97;5005138;27;97567;-67
2022/02/16 01:43:29;;;;;;;1999.90;999.90;;;;;;;1.27;53.62;100087.22;5005347;27;96871;-67
2022/02/16 01:45:57;;;;;;;1999.90;999.90;;;;;;;1.20;54.18;100086.03;5010991;27;97685;-67
2022/02/16 01:48:25;;;;;;;1999.90;999.90;;;;;;;1.23;53.49;100080.03;5029878;27;100002;-67
2022/02/16 01:50:54;;;;;;;1999.90;999.90;;;;;;;1.23;53.76;100080.03;4998478;27;97241;-68
2022/02/16 01:53:37;;;;;;;1999.90;999.90;;;;;;;1.21;53.68;100070.38;4999040;27;97759;-67
2022/02/16 01:56:06;;;;;;;1999.90;999.90;;;;;;;1.25;53.85;100063.56;5012980;27;101680;-67
2022/02/16 01:58:39;;;;;;;1999.90;999.90;;;;;;;1.28;53.75;100066.31;5000899;27;101136;-71
2022/02/16 02:01:30;;;;;;;1999.90;999.90;;;;;;;1.25;54.34;100066.19;4980694;27;98957;-67
2022/02/16 02:04:06;;;;;;;1999.90;999.90;;;;;;;1.25;53.72;100050.47;5003842;27;96789;-67
2022/02/16 02:06:35;;;;;;;1999.90;999.90;;;;;;;1.22;54.48;100052.94;5004635;27;101881;-67
2022/02/16 02:09:08;;;;;;;1999.90;999.90;;;;;;;1.26;54.38;100051.34;5003835;27;99597;-67
2022/02/16 02:11:36;;;;;;;1999.90;999.90;;;;;;;1.24;54.21;100043.41;5018835;27;97486;-67
2022/02/16 02:14:11;;;;;;;1999.90;999.90;;;;;;;1.20;53.99;100041.47;5003478;27;98425;-67
2022/02/16 02:16:50;;;;;;;1999.90;999.90;;;;;;;1.22;54.30;100037.22;5003738;27;100368;-67
2022/02/16 02:19:18;;;;;;;1999.90;999.90;;;;;;;1.25;53.97;100034.75;5021638;27;99605;-67
2022/02/16 02:21:51;;;;;;;1999.90;999.90;;;;;;;1.20;54.96;100031.00;5003894;27;97376;-67
2022/02/16 02:24:19;;;;;;;1999.90;999.90;;;;;;;1.25;54.22;100028.59;5004811;27;97539;-67
2022/02/16 02:26:46;;;;;;;1999.90;999.90;;;;;;;1.26;53.70;100018.19;4998745;27;98697;-67
2022/02/16 02:29:15;;;;;;;1999.90;999.90;;;;;;;1.28;53.74;100013.91;5018860;27;98523;-67
2022/02/16 02:32:03;;;;;;;1999.90;999.90;;;;;;;1.28;54.39;100013.00;5038034;27;98133;-67
2022/02/16 02:34:31;;;;;;;1999.90;999.90;;;;;;;1.30;54.71;100000.88;5004784;27;97492;-67
2022/02/16 02:37:00;;;;;;;1999.90;999.90;;;;;;;1.32;53.96;100007.09;5036996;27;97676;-67
2022/02/16 02:39:29;;;;;;;1999.90;999.90;;;;;;;1.30;54.14;100001.78;5004287;27;100394;-67
2022/02/16 02:41:57;;;;;;;1999.90;999.90;;;;;;;1.36;54.48;100002.03;5019702;27;100805;-68
2022/02/16 02:44:25;;;;;;;1999.90;999.90;;;;;;;1.39;54.75;99986.47;5005917;27;98005;-67
2022/02/16 02:46:54;;;;;;;1999.90;999.90;;;;;;;1.42;53.83;99990.94;5001324;27;98993;-67
2022/02/16 02:49:24;;;;;;;1999.90;999.90;;;;;;;1.35;54.46;99995.03;5020494;27;97536;-67
2022/02/16 02:51:55;;;;;;;1999.90;999.90;;;;;;;1.35;54.55;99975.78;5018014;27;99920;-67
2022/02/16 02:54:26;;;;;;;1999.90;999.90;;;;;;;1.38;54.01;99973.31;5020255;27;96908;-68
2022/02/16 02:56:54;;;;;;;1999.90;999.90;;;;;;;1.39;54.56;99960.25;5020299;27;98798;-66
2022/02/16 02:59:23;;;;;;;1999.90;999.90;;;;;;;1.35;55.16;99963.56;5002944;27;97408;-66
2022/02/16 03:01:54;;;;;;;1999.90;999.90;;;;;;;1.32;55.08;99952.06;5003480;27;97975;-67
2022/02/16 03:04:36;;;;;;;1999.90;999.90;;;;;;;1.36;54.32;99948.75;5020748;27;99153;-67
2022/02/16 03:07:05;;;;;;;1999.90;999.90;;;;;;;1.39;53.83;99944.53;5001912;27;98394;-67
2022/02/16 03:09:34;;;;;;;1999.90;999.90;;;;;;;1.36;55.12;99954.00;5002626;27;99486;-67
2022/02/16 03:12:02;;;;;;;1999.90;999.90;;;;;;;1.36;54.67;99939.13;5004126;27;98183;-67
2022/02/16 03:14:31;;;;;;;1999.90;999.90;;;;;;;1.36;54.41;99944.38;5022105;27;96929;-66
2022/02/16 03:16:59;;;;;;;1999.90;999.90;;;;;;;1.38;54.28;99937.47;5016116;27;98731;-68
2022/02/16 03:19:30;;;;;;;1999.90;999.90;;;;;;;1.38;54.43;99929.63;4998742;27;100928;-67
2022/02/16 03:22:13;;;;;;;1999.90;999.90;;;;;;;1.37;54.38;99938.34;5021841;27;97168;-67
2022/02/16 03:24:43;;;;;;;1999.90;999.90;;;;;;;1.37;54.89;99927.84;5002525;27;97079;-67
2022/02/16 03:27:10;;;;;;;1999.90;999.90;;;;;;;1.37;54.64;99924.31;5002140;27;100248;-66
2022/02/16 03:30:00;;;;;;;1999.90;999.90;;;;;;;1.41;54.33;99936.75;5019707;27;98426;-66
2022/02/16 03:32:34;;;;;;;1999.90;999.90;;;;;;;1.41;54.68;99927.16;5002358;27;97824;-68
2022/02/16 03:35:02;;;;;;;1999.90;999.90;;;;;;;1.40;53.99;99922.72;5019534;27;97288;-68
2022/02/16 03:37:30;;;;;;;1999.90;999.90;;;;;;;1.39;54.29;99923.56;5002452;27;99563;-67
2022/02/16 03:40:02;;;;;;;1999.90;999.90;;;;;;;1.42;54.28;99922.78;5018628;27;98448;-67
2022/02/16 03:42:31;;;;;;;1999.90;999.90;;;;;;;1.45;54.37;99922.94;5017701;27;98655;-67
2022/02/16 03:44:59;;;;;;;1999.90;999.90;;;;;;;1.46;55.00;99923.00;5035868;27;98193;-67
2022/02/16 03:47:38;;;;;;;1999.90;999.90;;;;;;;1.47;54.85;99916.03;5020000;27;100474;-67
2022/02/16 03:50:06;;;;;;;1999.90;999.90;;;;;;;1.45;54.41;99921.19;5001596;27;97980;-66
2022/02/16 03:52:34;;;;;;;1999.90;999.90;;;;;;;1.47;54.17;99916.91;5003752;27;97588;-67
2022/02/16 03:55:04;;;;;;;1999.90;999.90;;;;;;;1.52;53.82;99914.50;5033415;27;97915;-67
2022/02/16 03:57:32;;;;;;;1999.90;999.90;;;;;;;1.55;54.52;99912.00;5016356;27;97649;-67
2022/02/16 04:00:00;;;;;;;1999.90;999.90;;;;;;;1.51;54.23;99907.47;5018186;27;97986;-67
2022/02/16 04:02:40;;;;;;;1999.90;999.90;;;;;;;1.51;54.62;99905.75;5020466;27;100107;-68
2022/02/16 04:05:10;;;;;;;1999.90;999.90;;;;;;;1.53;54.49;99901.47;5003897;27;98133;-68
2022/02/16 04:07:38;;;;;;;1999.90;999.90;;;;;;;1.51;54.07;99897.88;5019845;27;97505;-68
2022/02/16 04:10:09;;;;;;;1999.90;999.90;;;;;;;1.44;54.90;99893.22;5001667;27;100793;-69
2022/02/16 04:12:39;;;;;;;1999.90;999.90;;;;;;;1.41;55.27;99889.56;5017331;27;98314;-69
2022/02/16 04:15:08;;;;;;;1999.90;999.90;;;;;;;1.42;54.95;99900.09;5017946;27;98055;-67
2022/02/16 04:17:39;;;;;;;1999.90;999.90;;;;;;;1.41;54.87;99890.47;5017744;27;98622;-69
2022/02/16 04:20:12;;;;;;;1999.90;999.90;;;;;;;1.45;54.63;99874.00;5017461;27;98628;-67
2022/02/16 04:22:42;;;;;;;1999.90;999.90;;;;;;;1.45;54.50;99876.63;5016380;27;98511;-67
2022/02/16 04:25:14;;;;;;;1999.90;999.90;;;;;;;1.48;54.79;99879.41;5003974;27;97366;-67
2022/02/16 04:27:43;;;;;;;1999.90;999.90;;;;;;;1.41;55.17;99873.84;4997508;27;100780;-67
2022/02/16 04:30:12;;;;;;;1999.90;999.90;;;;;;;1.43;55.05;99873.09;5000075;27;99141;-67
2022/02/16 04:32:41;;;;;;;1999.90;999.90;;;;;;;1.42;55.32;99866.03;5016639;27;98991;-67
2022/02/16 04:35:09;;;;;;;1999.90;999.90;;;;;;;1.42;55.01;99870.38;5017624;27;98732;-67
2022/02/16 04:37:37;;;;;;;1999.90;999.90;;;;;;;1.37;55.15;99864.03;5013191;27;98697;-68
2022/02/16 04:40:10;;;;;;;1999.90;999.90;;;;;;;1.38;54.90;99866.72;4999220;27;101602;-68
2022/02/16 04:42:41;;;;;;;1999.90;999.90;;;;;;;1.40;55.15;99858.97;5000000;27;98675;-68
2022/02/16 04:45:09;;;;;;;1999.90;999.90;;;;;;;1.42;55.26;99860.78;5017684;27;98563;-67
2022/02/16 04:47:38;;;;;;;1999.90;999.90;;;;;;;1.40;55.21;99859.81;5013554;27;99156;-68
2022/02/16 04:50:07;;;;;;;1999.90;999.90;;;;;;;1.38;55.10;99858.88;5017834;27;97922;-68
2022/02/16 04:52:37;;;;;;;1999.90;999.90;;;;;;;1.34;55.23;99854.34;4997876;27;98394;-68
2022/02/16 04:55:22;;;;;;;1999.90;999.90;;;;;;;1.34;55.35;99856.06;5036383;27;97426;-68
2022/02/16 04:57:54;;;;;;;1999.90;999.90;;;;;;;1.35;55.71;99839.50;5001512;27;100915;-67
2022/02/16 05:00:25;;;;;;;1999.90;999.90;;;;;;;1.35;55.01;99831.63;5002592;27;102045;-67
2022/02/16 05:03:13;;;;;;;1999.90;999.90;;;;;;;1.35;54.92;99837.78;5009863;27;98223;-67
2022/02/16 05:05:42;;;;;;;1999.90;999.90;;;;;;;1.35;55.38;99848.25;5012539;27;101080;-67
2022/02/16 05:08:10;;;;;;;1999.90;999.90;;;;;;;1.27;56.36;99833.91;5016367;27;99047;-67
2022/02/16 05:10:38;;;;;;;1999.90;999.90;;;;;;;1.28;55.56;99833.13;5015052;27;97758;-67
2022/02/16 05:13:10;;;;;;;1999.90;999.90;;;;;;;1.29;55.73;99831.41;5014052;27;98925;-67
2022/02/16 05:15:38;;;;;;;1999.90;999.90;;;;;;;1.28;55.69;99840.97;5018180;27;97154;-67
2022/02/16 05:18:07;;;;;;;1999.90;999.90;;;;;;;1.23;56.46;99827.66;5000765;27;100510;-68
2022/02/16 05:20:46;;;;;;;1999.90;999.90;;;;;;;1.25;55.82;99830.38;5015562;27;98838;-68
2022/02/16 05:23:14;;;;;;;1999.90;999.90;;;;;;;1.23;55.80;99827.66;5014180;27;98755;-68
2022/02/16 05:25:42;;;;;;;1999.90;999.90;;;;;;;1.20;56.23;99827.53;5018590;27;100615;-69
2022/02/16 05:28:13;;;;;;;1999.90;999.90;;;;;;;1.18;56.04;99823.94;4998091;27;99548;-68
2022/02/16 05:30:41;;;;;;;1999.90;999.90;;;;;;;1.14;57.06;99823.78;5033133;27;98742;-68
2022/02/16 05:33:10;;;;;;;1999.90;999.90;;;;;;;1.16;56.57;99820.38;4995389;27;97996;-69
2022/02/16 05:35:38;;;;;;;1999.90;999.90;;;;;;;1.17;55.74;99811.69;5033874;27;97254;-67
2022/02/16 05:38:06;;;;;;;1999.90;999.90;;;;;;;1.21;56.39;99805.72;5014539;27;97988;-68
2022/02/16 05:40:36;;;;;;;1999.90;999.90;;;;;;;1.23;55.86;99803.22;5014602;27;99886;-67
2022/02/16 05:43:04;;;;;;;1999.90;999.90;;;;;;;1.23;56.35;99800.59;5017919;27;97155;-67
2022/02/16 05:45:33;;;;;;;1999.90;999.90;;;;;;;1.21;56.53;99805.72;5004731;27;97359;-67
2022/02/16 05:48:01;;;;;;;1999.90;999.90;;;;;;;1.13;57.29;99790.53;5000382;27;98369;-67
2022/02/16 05:50:30;;;;;;;1999.90;999.90;;;;;;;1.12;56.76;99792.25;5003045;27;99879;-67
2022/02/16 05:52:59;;;;;;;1999.90;999.90;;;;;;;1.11;56.89;99780.00;5017548;27;98046;-67
2022/02/16 05:55:28;;;;;;;1999.90;999.90;;;;;;;1.12;56.97;99778.28;5020921;27;99636;-67
2022/02/16 05:57:56;;;;;;;1999.90;999.90;;;;;;;1.16;56.07;99780.16;5037826;27;98327;-67
2022/02/16 06:00:23;;;;;;;1999.90;999.90;;;;;;;1.12;57.32;99765.19;5014868;27;100028;-67
2022/02/16 06:02:52;;;;;;;1999.90;999.90;;;;;;;1.13;57.04;99767.84;5030222;27;96842;-68
2022/02/16 06:05:20;;;;;;;1999.90;999.90;;;;;;;1.07;58.08;99762.34;4996997;27;100863;-67
2022/02/16 06:07:51;;;;;;;1999.90;999.90;;;;;;;1.06;57.41;99759.66;5032340;27;97696;-67
2022/02/16 06:10:19;;;;;;;1999.90;999.90;;;;;;;1.01;57.95;99753.34;5014998;27;99735;-68
2022/02/16 06:12:47;;;;;;;1999.90;999.90;;;;;;;1.02;57.31;99750.78;5015452;27;97671;-67
2022/02/16 06:15:15;;;;;;;1999.90;999.90;;;;;;;1.06;57.71;99749.19;5009709;27;97490;-67
2022/02/16 06:17:43;;;;;;;1999.90;999.90;;;;;;;1.01;58.30;99735.00;5032827;27;98165;-67
2022/02/16 06:20:14;;;;;;;1999.90;999.90;;;;;;;1.02;57.97;99727.22;4989472;27;99125;-66
2022/02/16 06:22:45;;;;;;;1999.90;999.90;;;;;;;1.06;57.69;99730.84;4998243;27;97594;-66
2022/02/16 06:25:13;;;;;;;1999.90;999.90;;;;;;;1.02;58.28;99724.59;4991203;27;97949;-67
2022/02/16 06:27:45;;;;;;;1999.90;999.90;;;;;;;1.08;57.37;99719.63;5001928;27;99313;-67
2022/02/16 06:30:13;;;;;;;1999.90;999.90;;;;;;;1.08;57.85;99718.72;5013228;27;98381;-67
2022/02/16 06:32:50;;;;;;;1999.90;999.90;;;;;;;1.12;57.70;99723.25;5013967;27;97031;-67
2022/02/16 06:35:20;;;;;;;1999.90;999.90;;;;;;;1.16;57.21;99725.16;4996532;27;97718;-67
2022/02/16 06:37:48;;;;;;;1999.90;999.90;;;;;;;1.21;56.91;99714.03;5012091;27;96882;-66
2022/02/16 06:40:17;;;;;;;1999.90;999.90;;;;;;;1.25;56.78;99717.72;5030465;27;96738;-68
2022/02/16 06:42:48;;;;;;;1999.90;999.90;;;;;;;1.25;58.25;99715.09;4997481;27;97745;-67
2022/02/16 06:45:17;;;;;;;1999.90;999.90;;;;;;;1.24;57.14;99710.66;4998359;27;97363;-67
2022/02/16 06:47:49;;;;;;;1999.90;999.90;;;;;;;1.26;57.53;99692.38;5034034;27;97858;-67
2022/02/16 06:50:17;;;;;;;1999.90;999.90;;;;;;;1.26;57.90;99698.50;5032185;27;101687;-67
2022/02/16 06:52:53;;;;;;;1999.90;999.90;;;;;;;1.27;57.71;99696.81;5013695;27;97167;-67
2022/02/16 06:55:20;;;;;;;1999.90;999.90;;;;;;;1.28;56.95;99694.22;5030694;27;97868;-67
2022/02/16 06:57:52;;;;;;;1999.90;999.90;;;;;;;1.28;57.74;99693.34;5035171;27;98209;-67
2022/02/16 07:00:22;;;;;;;1999.90;999.90;;;;;;;1.29;57.31;99696.00;5017356;27;97713;-68
2022/02/16 07:02:50;;;;;;;1999.90;999.90;;;;;;;1.32;57.19;99690.91;5000067;27;97898;-68
2022/02/16 07:05:28;;;;;;;1999.90;999.90;;;;;;;1.34;56.93;99684.00;5013787;27;97642;-67
2022/02/16 07:07:59;;;;;;;1999.90;999.90;;;;;;;1.30;58.04;99679.47;4998343;27;100019;-68
2022/02/16 07:10:27;;;;;;;1999.90;999.90;;;;;;;1.25;58.27;99678.41;5013988;27;97729;-67
2022/02/16 07:12:57;;;;;;;1999.90;999.90;;;;;;;1.24;57.68;99673.97;4999461;27;99163;-67
2022/02/16 07:15:26;;;;;;;1999.90;999.90;;;;;;;1.28;58.17;99670.66;4998600;27;97970;-67
2022/02/16 07:17:55;;;;;;;1999.90;999.90;;;;;;;1.28;58.03;99656.66;4995442;27;98422;-67
2022/02/16 07:20:36;;;;;;;1999.90;999.90;;;;;;;1.31;57.74;99635.81;5013245;27;99235;-67
2022/02/16 07:23:10;;;;;;;1999.90;999.90;;;;;;;1.32;57.80;99633.28;4999499;27;96992;-69
2022/02/16 07:25:40;;;;;;;1999.90;999.90;;;;;;;1.36;57.03;99623.78;4999719;27;97921;-67
2022/02/16 07:28:31;;;;;;;1999.90;999.90;;;;;;;1.36;57.56;99626.41;5000709;27;97481;-67
2022/02/16 07:30:59;;;;;;;1999.90;999.90;;;;;;;1.35;58.42;99617.66;5034703;27;96852;-67
2022/02/16 07:33:28;;;;;;;1999.90;999.90;;;;;;;1.40;57.42;99608.22;5018504;27;97723;-67
2022/02/16 07:35:56;;;;;;;1999.90;999.90;;;;;;;1.41;57.58;99614.38;5036178;27;98487;-67
2022/02/16 07:38:25;;;;;;;1999.90;999.90;;;;;;;1.45;57.62;99601.44;5003856;27;100158;-68
2022/02/16 07:40:53;;;;;;;1999.90;999.90;;;;;;;1.41;58.37;99611.75;5021511;27;96946;-68
2022/02/16 07:43:24;;;;;;;1999.90;999.90;;;;;;;1.38;57.88;99603.78;5021792;27;97893;-67
2022/02/16 07:45:58;;;;;;;1999.90;999.90;;;;;;;1.41;57.86;99599.56;5019428;27;99667;-68
2022/02/16 07:48:29;;;;;;;1999.90;999.90;;;;;;;1.43;57.59;99597.88;5022496;27;99029;-67
2022/02/16 07:50:57;;;;;;;1999.90;999.90;;;;;;;1.47;57.49;99591.03;5021954;27;98419;-68
2022/02/16 07:53:48;;;;;;;1999.90;999.90;;;;;;;1.48;58.07;99583.22;5025840;27;97645;-69
2022/02/16 07:56:15;;;;;;;1999.90;999.90;;;;;;;1.48;58.72;99582.31;5007048;27;96756;-69
2022/02/16 07:58:43;;;;;;;1999.90;999.90;;;;;;;1.49;57.84;99585.00;5006180;27;98657;-68
2022/02/16 08:01:11;;;;;;;1999.90;999.90;;;;;;;1.49;58.35;99576.25;5005800;27;99776;-69
2022/02/16 08:03:40;;;;;;;1999.90;999.90;;;;;;;1.52;57.46;99573.75;5004832;27;97148;-69
2022/02/16 08:06:08;;;;;;;1999.90;999.90;;;;;;;1.55;57.86;99569.50;5021381;27;97655;-68
2022/02/16 08:08:37;;;;;;;1999.90;999.90;;;;;;;1.57;57.81;99559.06;5021304;27;97926;-68
2022/02/16 08:11:06;;;;;;;1999.90;999.90;;;;;;;1.61;57.03;99563.59;5001881;27;98867;-69
2022/02/16 08:13:36;;;;;;;1999.90;999.90;;;;;;;1.63;56.96;99551.44;5039729;27;97331;-69
2022/02/16 08:16:10;;;;;;;1999.90;999.90;;;;;;;1.63;57.56;99534.00;5021361;27;96821;-69
2022/02/16 08:18:50;;;;;;;1999.90;999.90;;;;;;;1.66;57.20;99523.63;5019529;27;100699;-67
2022/02/16 08:21:18;;;;;;;1999.90;999.90;;;;;;;1.70;57.38;99535.09;5019573;27;98089;-68
2022/02/16 08:23:48;;;;;;;1999.90;999.90;;;;;;;1.70;57.79;99522.91;5016675;27;98357;-68
2022/02/16 08:26:17;;;;;;;1999.90;999.90;;;;;;;2.03;56.92;99525.81;5036538;27;98306;-68
2022/02/16 08:28:45;;;;;;;1999.90;999.90;;;;;;;1.83;57.40;99516.34;5021462;27;100202;-68
2022/02/16 08:31:13;;;;;;;1999.90;999.90;;;;;;;1.81;58.01;99511.06;5021991;27;98802;-69
2022/02/16 08:34:07;;;;;;;1999.90;999.90;;;;;;;2.24;56.98;99507.34;5015183;27;97663;-68
2022/02/16 08:36:48;;;;;;;1999.90;999.90;;;;;;;2.02;57.52;99498.69;5005193;27;97960;-68
2022/02/16 08:39:16;;;;;;;1999.90;999.90;;;;;;;1.99;58.33;99498.59;5031925;27;98509;-69
2022/02/16 08:41:45;;;;;;;1999.90;999.90;;;;;;;2.01;57.62;99483.78;5039394;27;96781;-68
2022/02/16 08:44:13;;;;;;;1999.90;999.90;;;;;;;2.03;57.52;99474.25;5035986;27;97552;-68
2022/02/16 08:46:40;;;;;;;1999.90;999.90;;;;;;;2.01;57.99;99472.41;5019460;27;97672;-68
2022/02/16 08:49:08;;;;;;;1999.90;999.90;;;;;;;2.37;57.31;99465.78;5036387;27;97599;-68
2022/02/16 08:51:36;;;;;;;1999.90;999.90;;;;;;;2.13;58.29;99449.22;5038331;27;97967;-68
2022/02/16 08:54:04;;;;;;;1999.90;999.90;;;;;;;2.05;59.04;99445.44;5018394;27;97819;-68
2022/02/16 08:56:31;;;;;;;1999.90;999.90;;;;;;;2.42;57.85;99430.06;5032212;27;97672;-68
2022/02/16 08:59:00;;;;;;;1999.90;999.90;;;;;;;2.63;57.58;99416.72;5011846;27;98480;-70
2022/02/16 09:01:31;;;;;;;1999.90;999.90;;;;;;;2.34;58.03;99415.84;5031393;27;98448;-70
2022/02/16 09:03:59;;;;;;;1999.90;999.90;;;;;;;2.29;58.13;99419.16;5035343;27;97172;-68
2022/02/16 09:06:27;;;;;;;1999.90;999.90;;;;;;;2.22;58.69;99410.16;5034751;27;98986;-72
2022/02/16 09:08:56;;;;;;;1999.90;999.90;;;;;;;2.15;58.77;99419.59;5013086;27;99224;-72
2022/02/16 09:11:24;;;;;;;1999.90;999.90;;;;;;;2.15;58.85;99403.84;5035503;27;98288;-70
2022/02/16 09:13:51;;;;;;;1999.90;999.90;;;;;;;2.15;58.39;99387.19;5034341;27;98649;-68
2022/02/16 09:16:20;;;;;;;1999.90;999.90;;;;;;;2.14;58.49;99394.16;5015875;27;98627;-69
2022/02/16 09:18:48;;;;;;;1999.90;999.90;;;;;;;2.13;58.80;99391.50;5017572;27;102125;-67
2022/02/16 09:21:17;;;;;;;1999.90;999.90;;;;;;;2.12;58.35;99390.63;5015694;27;98984;-67
2022/02/16 09:23:45;;;;;;;1999.90;999.90;;;;;;;2.02;59.82;99383.25;5036053;27;97943;-67
2022/02/16 09:26:13;;;;;;;1999.90;999.90;;;;;;;2.02;58.64;99384.97;5037615;27;98358;-68
2022/02/16 09:28:41;;;;;;;1999.90;999.90;;;;;;;2.04;58.33;99367.56;5016273;27;100046;-67
2022/02/16 09:31:08;;;;;;;1999.90;999.90;;;;;;;2.08;58.71;99358.97;5034467;27;98406;-68
2022/02/16 09:33:37;;;;;;;1999.90;999.90;;;;;;;2.07;59.11;99352.81;5035759;27;97993;-67
2022/02/16 09:36:05;;;;;;;1999.90;999.90;;;;;;;2.07;59.21;99347.56;5038585;27;96873;-68
2022/02/16 09:38:33;;;;;;;1999.90;999.90;;;;;;;2.08;58.96;99336.25;5037152;27;97853;-68
2022/02/16 09:41:01;;;;;;;1999.90;999.90;;;;;;;2.12;58.07;99325.06;5018781;27;99177;-67
2022/02/16 09:43:29;;;;;;;1999.90;999.90;;;;;;;2.12;59.05;99322.44;5036138;27;97852;-73
2022/02/16 09:45:59;;;;;;;1999.90;999.90;;;;;;;2.15;58.38;99314.63;5038903;27;97777;-70
2022/02/16 09:48:27;;;;;;;1999.90;999.90;;;;;;;2.17;58.96;99322.56;5018554;27;99290;-67
2022/02/16 09:50:58;;;;;;;1999.90;999.90;;;;;;;2.14;59.26;99323.34;5036389;27;99890;-67
2022/02/16 09:53:30;;;;;;;1999.90;999.90;;;;;;;2.19;58.37;99326.13;5039206;27;96963;-68
2022/02/16 09:55:59;;;;;;;1999.90;999.90;;;;;;;2.19;58.89;99327.03;5003158;27;97112;-67
2022/02/16 09:58:27;;;;;;;1999.90;999.90;;;;;;;2.19;58.87;99319.16;5038724;27;99727;-67
2022/02/16 10:01:03;;;;;;;1999.90;999.90;;;;;;;2.21;59.04;99308.69;5021523;27;100334;-67
2022/02/16 10:03:31;;;;;;;1999.90;999.90;;;;;;;2.26;58.76;99295.69;5037995;27;99074;-67
2022/02/16 10:06:03;;;;;;;1999.90;999.90;;;;;;;2.28;58.89;99301.88;5038073;27;98985;-67
2022/02/16 10:08:42;;;;;;;1999.90;999.90;;;;;;;2.27;59.80;99293.16;5005003;27;98534;-68
2022/02/16 10:11:10;;;;;;;1999.90;999.90;;;;;;;2.35;59.32;99282.84;5022060;27;99766;-68
2022/02/16 10:13:38;;;;;;;1999.90;999.90;;;;;;;2.38;58.87;99270.75;5037721;27;96921;-68
2022/02/16 10:16:06;;;;;;;1999.90;999.90;;;;;;;2.38;58.70;99276.00;5038584;27;98024;-67
2022/02/16 10:18:55;;;;;;;1999.90;999.90;;;;;;;2.43;58.46;99268.22;5037140;27;99595;-68
2022/02/16 10:21:24;;;;;;;1999.90;999.90;;;;;;;2.45;58.48;99251.69;5018882;27;100936;-68
2022/02/16 10:23:57;;;;;;;1999.90;999.90;;;;;;;2.42;59.75;99258.59;5022192;27;98010;-68
2022/02/16 10:26:50;;;;;;;1999.90;999.90;;;;;;;2.45;60.17;99266.53;5021354;27;96963;-67
2022/02/16 10:29:19;;;;;;;1999.90;999.90;;;;;;;2.49;58.64;99265.78;5037752;27;98844;-68
2022/02/16 10:31:47;;;;;;;1999.90;999.90;;;;;;;2.50;58.26;99242.22;5036216;27;97689;-68
2022/02/16 10:34:15;;;;;;;1999.90;999.90;;;;;;;2.50;58.69;99238.69;5019669;27;98434;-69
2022/02/16 10:36:46;;;;;;;1999.90;999.90;;;;;;;2.47;59.24;99241.22;5020764;27;99304;-68
2022/02/16 10:39:16;;;;;;;1999.90;999.90;;;;;;;2.49;59.42;99231.66;5039866;27;98790;-68
2022/02/16 10:41:45;;;;;;;1999.90;999.90;;;;;;;2.51;59.12;99219.47;5019918;27;100487;-68
2022/02/16 10:44:22;;;;;;;1999.90;999.90;;;;;;;2.85;57.98;99211.66;5017818;27;99168;-69
2022/02/16 10:47:00;;;;;;;1999.90;999.90;;;;;;;2.75;59.20;99213.16;5021031;27;98166;-68
2022/02/16 10:49:29;;;;;;;1999.90;999.90;;;;;;;2.76;59.18;99204.44;5038855;27;97723;-68
2022/02/16 10:52:10;;;;;;;1999.90;999.90;;;;;;;2.78;59.03;99200.13;5019724;27;100392;-68
2022/02/16 10:54:39;;;;;;;1999.90;999.90;;;;;;;3.12;58.65;99210.66;5037171;27;97345;-67
2022/02/16 10:57:09;;;;;;;1999.90;999.90;;;;;;;2.88;59.82;99198.59;5021569;27;96896;-69
2022/02/16 10:59:37;;;;;;;1999.90;999.90;;;;;;;2.86;60.17;99181.91;5020482;27;98942;-69
2022/02/16 11:02:06;;;;;;;1999.90;999.90;;;;;;;2.89;59.13;99175.00;5021920;27;97696;-72
2022/02/16 11:04:35;;;;;;;1999.90;999.90;;;;;;;2.91;59.90;99170.69;5037667;27;97868;-67
2022/02/16 11:07:05;;;;;;;1999.90;999.90;;;;;;;2.93;59.98;99162.88;5036054;27;96848;-69
2022/02/16 11:09:38;;;;;;;1999.90;999.90;;;;;;;2.91;59.76;99157.53;5019236;27;97999;-68
2022/02/16 11:12:06;;;;;;;1999.90;999.90;;;;;;;2.84;60.81;99146.84;5020787;27;98061;-68
2022/02/16 11:14:35;;;;;;;1999.90;999.90;;;;;;;2.85;60.46;99156.50;5021714;27;97043;-68